createdAt,value
2018-07-08T00:00:02.660Z,0
2018-07-08T00:01:02.943Z,0
2018-07-08T00:02:03.237Z,0
2018-07-08T00:03:03.005Z,0
2018-07-08T00:04:03.313Z,0
2018-07-08T00:05:03.043Z,0
2018-07-08T00:06:03.092Z,0
2018-07-08T00:07:03.088Z,0
2018-07-08T00:08:03.378Z,0
2018-07-08T00:09:03.141Z,0
2018-07-08T00:10:03.164Z,0
2018-07-08T00:11:03.451Z,0
2018-07-08T00:12:03.241Z,0
2018-07-08T00:13:03.243Z,0
2018-07-08T00:14:03.003Z,0
2018-07-08T00:15:03.284Z,0
2018-07-08T00:16:03.039Z,0
2018-07-08T00:17:03.339Z,0
2018-07-08T00:18:03.381Z,0
2018-07-08T00:19:03.379Z,0
2018-07-08T00:20:03.671Z,0
2018-07-08T00:21:03.162Z,0
2018-07-08T00:22:03.727Z,0
2018-07-08T00:23:03.480Z,0
2018-07-08T00:24:03.506Z,0
2018-07-08T00:25:03.525Z,0
2018-07-08T00:26:03.862Z,0
2018-07-08T00:27:03.579Z,0
2018-07-08T00:28:03.616Z,0
2018-07-08T00:29:02.825Z,0
2018-07-08T00:30:03.658Z,0
2018-07-08T00:31:03.673Z,0
2018-07-08T00:32:03.968Z,0
2018-07-08T00:33:03.635Z,0
2018-07-08T00:34:03.748Z,0
2018-07-08T00:35:03.767Z,0
2018-07-08T00:36:03.788Z,0
2018-07-08T00:37:03.822Z,0
2018-07-08T00:38:03.583Z,0
2018-07-08T00:39:03.864Z,0
2018-07-08T00:40:04.487Z,0
2018-07-08T00:41:04.189Z,0
2018-07-08T00:42:03.941Z,0
2018-07-08T00:43:04.276Z,0
2018-07-08T00:44:03.718Z,0
2018-07-08T00:45:03.747Z,0
2018-07-08T00:46:03.767Z,0
2018-07-08T00:47:04.062Z,0
2018-07-08T00:48:04.143Z,0
2018-07-08T00:49:04.380Z,0
2018-07-08T00:50:04.413Z,0
2018-07-08T00:51:04.156Z,0
2018-07-08T00:52:04.182Z,0
2018-07-08T00:53:04.200Z,0
2018-07-08T00:54:04.233Z,0
2018-07-08T00:55:03.717Z,0
2018-07-08T00:56:03.479Z,0
2018-07-08T00:57:04.572Z,0
2018-07-08T00:58:04.319Z,0
2018-07-08T00:59:04.343Z,0
2018-07-08T01:00:04.105Z,0
2018-07-08T01:01:04.399Z,0
2018-07-08T01:02:04.421Z,0
2018-07-08T01:03:04.176Z,0
2018-07-08T01:04:04.475Z,0
2018-07-08T01:05:04.797Z,0
2018-07-08T01:06:04.237Z,0
2018-07-08T01:07:04.533Z,0
2018-07-08T01:08:04.075Z,0
2018-07-08T01:09:04.586Z,0
2018-07-08T01:10:04.343Z,0
2018-07-08T01:11:04.637Z,0
2018-07-08T01:12:04.656Z,0
2018-07-08T01:13:04.438Z,0
2018-07-08T01:14:04.707Z,0
2018-07-08T01:15:03.923Z,0
2018-07-08T01:16:04.751Z,0
2018-07-08T01:17:04.505Z,0
2018-07-08T01:18:04.266Z,0
2018-07-08T01:19:05.096Z,0
2018-07-08T01:20:04.842Z,0
2018-07-08T01:21:04.897Z,0
2018-07-08T01:22:04.887Z,0
2018-07-08T01:23:04.934Z,0
2018-07-08T01:24:05.215Z,0
2018-07-08T01:25:05.228Z,0
2018-07-08T01:26:04.979Z,0
2018-07-08T01:27:05.011Z,0
2018-07-08T01:28:05.301Z,0
2018-07-08T01:29:05.057Z,0
2018-07-08T01:30:05.360Z,0
2018-07-08T01:31:04.837Z,0
2018-07-08T01:32:04.862Z,0
2018-07-08T01:33:05.422Z,0
2018-07-08T01:34:05.176Z,0
2018-07-08T01:35:05.200Z,0
2018-07-08T01:36:05.031Z,0
2018-07-08T01:37:04.713Z,0
2018-07-08T01:38:04.747Z,0
2018-07-08T01:39:05.563Z,0
2018-07-08T01:40:05.579Z,0
2018-07-08T01:41:05.624Z,0
2018-07-08T01:42:05.101Z,0
2018-07-08T01:43:05.654Z,0
2018-07-08T01:44:05.416Z,0
2018-07-08T01:45:05.702Z,0
2018-07-08T01:46:05.727Z,0
2018-07-08T01:47:05.741Z,0
2018-07-08T01:48:05.520Z,0
2018-07-08T01:49:05.518Z,0
2018-07-08T01:50:05.302Z,0
2018-07-08T01:51:05.849Z,0
2018-07-08T01:52:05.601Z,0
2018-07-08T01:53:05.618Z,0
2018-07-08T01:54:05.653Z,0
2018-07-08T01:55:05.988Z,0
2018-07-08T01:56:05.960Z,0
2018-07-08T01:57:05.710Z,0
2018-07-08T01:58:05.744Z,0
2018-07-08T01:59:05.494Z,0
2018-07-08T02:00:06.091Z,0
2018-07-08T02:01:05.812Z,0
2018-07-08T02:02:05.293Z,0
2018-07-08T02:03:06.111Z,0
2018-07-08T02:04:05.887Z,0
2018-07-08T02:05:06.169Z,0
2018-07-08T02:06:05.939Z,0
2018-07-08T02:07:06.212Z,0
2018-07-08T02:08:05.691Z,0
2018-07-08T02:09:05.993Z,0
2018-07-08T02:10:06.023Z,0
2018-07-08T02:11:06.087Z,0
2018-07-08T02:12:06.055Z,0
2018-07-08T02:13:06.086Z,0
2018-07-08T02:14:05.598Z,0
2018-07-08T02:15:06.134Z,0
2018-07-08T02:16:06.158Z,0
2018-07-08T02:17:05.906Z,0
2018-07-08T02:18:06.468Z,0
2018-07-08T02:19:05.959Z,0
2018-07-08T02:20:05.715Z,0
2018-07-08T02:21:06.004Z,0
2018-07-08T02:22:06.565Z,0
2018-07-08T02:23:06.329Z,0
2018-07-08T02:24:06.357Z,0
2018-07-08T02:25:06.097Z,0
2018-07-08T02:26:06.380Z,0
2018-07-08T02:27:06.410Z,0
2018-07-08T02:28:06.709Z,0
2018-07-08T02:29:06.730Z,0
2018-07-08T02:30:06.480Z,0
2018-07-08T02:31:06.508Z,0
2018-07-08T02:32:06.528Z,0
2018-07-08T02:33:06.597Z,0
2018-07-08T02:34:06.312Z,0
2018-07-08T02:35:06.323Z,0
2018-07-08T02:36:06.364Z,0
2018-07-08T02:37:06.104Z,0
2018-07-08T02:38:06.392Z,0
2018-07-08T02:39:06.161Z,0
2018-07-08T02:40:07.009Z,0
2018-07-08T02:41:07.018Z,0
2018-07-08T02:42:07.035Z,0
2018-07-08T02:43:06.781Z,0
2018-07-08T02:44:07.084Z,0
2018-07-08T02:45:06.570Z,0
2018-07-08T02:46:06.578Z,0
2018-07-08T02:47:06.597Z,0
2018-07-08T02:48:07.159Z,0
2018-07-08T02:49:06.917Z,0
2018-07-08T02:50:07.220Z,0
2018-07-08T02:51:06.968Z,0
2018-07-08T02:52:07.258Z,0
2018-07-08T02:53:07.318Z,0
2018-07-08T02:54:07.039Z,0
2018-07-08T02:55:07.281Z,0
2018-07-08T02:56:07.079Z,0
2018-07-08T02:57:07.100Z,0
2018-07-08T02:58:07.120Z,0
2018-07-08T02:59:06.875Z,0
2018-07-08T03:00:06.899Z,0
2018-07-08T03:01:06.921Z,0
2018-07-08T03:02:06.953Z,0
2018-07-08T03:03:07.249Z,0
2018-07-08T03:04:07.542Z,0
2018-07-08T03:05:07.783Z,0
2018-07-08T03:06:07.035Z,0
2018-07-08T03:07:07.069Z,0
2018-07-08T03:08:06.819Z,0
2018-07-08T03:09:07.649Z,0
2018-07-08T03:10:06.855Z,0
2018-07-08T03:11:07.691Z,0
2018-07-08T03:12:07.445Z,0
2018-07-08T03:13:07.464Z,0
2018-07-08T03:14:07.748Z,0
2018-07-08T03:15:07.250Z,0
2018-07-08T03:16:07.548Z,0
2018-07-08T03:17:07.544Z,0
2018-07-08T03:18:07.334Z,0
2018-07-08T03:19:07.327Z,0
2018-07-08T03:20:07.622Z,0
2018-07-08T03:21:07.366Z,0
2018-07-08T03:22:07.672Z,0
2018-07-08T03:23:07.954Z,0
2018-07-08T03:24:07.211Z,0
2018-07-08T03:25:08.001Z,0
2018-07-08T03:26:07.756Z,0
2018-07-08T03:27:07.773Z,0
2018-07-08T03:28:08.281Z,0
2018-07-08T03:29:07.820Z,0
2018-07-08T03:30:07.861Z,0
2018-07-08T03:31:07.869Z,0
2018-07-08T03:32:08.180Z,0
2018-07-08T03:33:07.910Z,0
2018-07-08T03:34:07.936Z,0
2018-07-08T03:35:07.962Z,0
2018-07-08T03:36:07.728Z,0
2018-07-08T03:37:07.733Z,0
2018-07-08T03:38:08.320Z,0
2018-07-08T03:39:08.321Z,0
2018-07-08T03:40:08.108Z,0
2018-07-08T03:41:07.825Z,0
2018-07-08T03:42:08.116Z,0
2018-07-08T03:43:07.593Z,0
2018-07-08T03:44:08.432Z,0
2018-07-08T03:45:08.451Z,0
2018-07-08T03:46:07.967Z,0
2018-07-08T03:47:07.684Z,0
2018-07-08T03:48:08.245Z,0
2018-07-08T03:49:08.268Z,0
2018-07-08T03:50:08.028Z,0
2018-07-08T03:51:08.316Z,0
2018-07-08T03:52:08.072Z,0
2018-07-08T03:53:08.363Z,0
2018-07-08T03:54:08.120Z,0
2018-07-08T03:55:08.664Z,0
2018-07-08T03:56:08.154Z,0
2018-07-08T03:57:08.448Z,0
2018-07-08T03:58:08.196Z,0
2018-07-08T03:59:08.484Z,0
2018-07-08T04:00:08.534Z,0
2018-07-08T04:01:08.264Z,0
2018-07-08T04:02:08.831Z,0
2018-07-08T04:03:08.577Z,0
2018-07-08T04:04:08.330Z,0
2018-07-08T04:05:08.628Z,0
2018-07-08T04:06:08.644Z,0
2018-07-08T04:07:08.940Z,0
2018-07-08T04:08:08.968Z,0
2018-07-08T04:09:08.719Z,0
2018-07-08T04:10:08.753Z,0
2018-07-08T04:11:08.764Z,0
2018-07-08T04:12:08.786Z,0
2018-07-08T04:13:09.077Z,0
2018-07-08T04:14:08.825Z,0
2018-07-08T04:15:08.892Z,0
2018-07-08T04:16:08.334Z,0
2018-07-08T04:17:08.622Z,0
2018-07-08T04:18:08.927Z,0
2018-07-08T04:19:08.932Z,0
2018-07-08T04:20:08.973Z,0
2018-07-08T04:21:09.244Z,0
2018-07-08T04:22:09.004Z,0
2018-07-08T04:23:08.756Z,0
2018-07-08T04:24:08.784Z,0
2018-07-08T04:25:08.796Z,0
2018-07-08T04:26:08.820Z,0
2018-07-08T04:27:08.574Z,0
2018-07-08T04:28:09.420Z,0
2018-07-08T04:29:08.890Z,0
2018-07-08T04:30:08.920Z,0
2018-07-08T04:31:09.474Z,0
2018-07-08T04:32:09.495Z,0
2018-07-08T04:33:09.246Z,0
2018-07-08T04:34:09.267Z,0
2018-07-08T04:35:09.036Z,0
2018-07-08T04:36:09.314Z,0
2018-07-08T04:37:09.602Z,5
2018-07-08T04:38:09.364Z,5
2018-07-08T04:39:09.649Z,5
2018-07-08T04:40:09.693Z,5
2018-07-08T04:41:09.691Z,5
2018-07-08T04:42:09.483Z,5
2018-07-08T04:43:09.203Z,5
2018-07-08T04:44:09.489Z,5
2018-07-08T04:45:09.780Z,5
2018-07-08T04:46:09.801Z,5
2018-07-08T04:47:09.578Z,5
2018-07-08T04:48:09.575Z,5
2018-07-08T04:49:09.429Z,5
2018-07-08T04:50:09.624Z,5
2018-07-08T04:51:09.909Z,5
2018-07-08T04:52:09.670Z,5
2018-07-08T04:53:09.444Z,5
2018-07-08T04:54:09.443Z,5
2018-07-08T04:55:09.998Z,5
2018-07-08T04:56:09.763Z,5
2018-07-08T04:57:10.039Z,10
2018-07-08T04:58:09.541Z,10
2018-07-08T04:59:09.896Z,10
2018-07-08T05:00:09.579Z,10
2018-07-08T05:01:10.709Z,10
2018-07-08T05:02:09.906Z,10
2018-07-08T05:03:10.179Z,10
2018-07-08T05:04:09.690Z,10
2018-07-08T05:05:09.424Z,10
2018-07-08T05:06:10.264Z,10
2018-07-08T05:07:09.994Z,10
2018-07-08T05:08:10.283Z,10
2018-07-08T05:09:10.306Z,10
2018-07-08T05:10:10.334Z,10
2018-07-08T05:11:09.810Z,10
2018-07-08T05:12:09.611Z,10
2018-07-08T05:13:10.406Z,10
2018-07-08T05:14:10.418Z,10
2018-07-08T05:15:10.178Z,10
2018-07-08T05:16:09.962Z,10
2018-07-08T05:17:10.486Z,10
2018-07-08T05:18:10.515Z,10
2018-07-08T05:19:09.995Z,10
2018-07-08T05:20:10.293Z,10
2018-07-08T05:21:10.577Z,10
2018-07-08T05:22:10.318Z,10
2018-07-08T05:23:09.811Z,10
2018-07-08T05:24:09.848Z,10
2018-07-08T05:25:10.127Z,10
2018-07-08T05:26:10.433Z,10
2018-07-08T05:27:10.702Z,10
2018-07-08T05:28:10.200Z,10
2018-07-08T05:29:10.773Z,10
2018-07-08T05:30:10.517Z,15
2018-07-08T05:31:10.801Z,15
2018-07-08T05:32:10.029Z,10
2018-07-08T05:33:10.593Z,10
2018-07-08T05:34:10.653Z,10
2018-07-08T05:35:10.882Z,10
2018-07-08T05:36:10.411Z,10
2018-07-08T05:37:10.383Z,10
2018-07-08T05:38:10.141Z,10
2018-07-08T05:39:10.699Z,10
2018-07-08T05:40:10.468Z,10
2018-07-08T05:41:11.005Z,10
2018-07-08T05:42:10.500Z,15
2018-07-08T05:43:10.520Z,10
2018-07-08T05:44:10.538Z,15
2018-07-08T05:45:10.571Z,10
2018-07-08T05:46:10.872Z,10
2018-07-08T05:47:10.897Z,10
2018-07-08T05:48:10.634Z,10
2018-07-08T05:49:11.212Z,10
2018-07-08T05:50:11.193Z,10
2018-07-08T05:51:10.966Z,10
2018-07-08T05:52:11.262Z,10
2018-07-08T05:53:10.738Z,10
2018-07-08T05:54:10.771Z,10
2018-07-08T05:55:11.315Z,10
2018-07-08T05:56:11.085Z,10
2018-07-08T05:57:11.108Z,10
2018-07-08T05:58:10.884Z,10
2018-07-08T05:59:11.439Z,10
2018-07-08T06:00:11.439Z,10
2018-07-08T06:01:10.922Z,15
2018-07-08T06:02:11.217Z,15
2018-07-08T06:03:10.973Z,15
2018-07-08T06:04:11.518Z,20
2018-07-08T06:05:11.281Z,20
2018-07-08T06:06:11.311Z,25
2018-07-08T06:07:10.790Z,25
2018-07-08T06:08:11.362Z,25
2018-07-08T06:09:11.369Z,20
2018-07-08T06:10:11.123Z,25
2018-07-08T06:11:11.418Z,25
2018-07-08T06:12:11.169Z,20
2018-07-08T06:13:11.460Z,20
2018-07-08T06:14:11.225Z,20
2018-07-08T06:15:11.494Z,20
2018-07-08T06:16:11.256Z,20
2018-07-08T06:17:11.550Z,25
2018-07-08T06:18:11.720Z,25
2018-07-08T06:19:11.342Z,25
2018-07-08T06:20:11.882Z,20
2018-07-08T06:21:11.364Z,20
2018-07-08T06:22:11.669Z,20
2018-07-08T06:23:11.685Z,25
2018-07-08T06:24:11.433Z,30
2018-07-08T06:25:11.746Z,30
2018-07-08T06:26:11.872Z,30
2018-07-08T06:27:11.502Z,25
2018-07-08T06:28:11.791Z,20
2018-07-08T06:29:11.540Z,20
2018-07-08T06:30:11.835Z,20
2018-07-08T06:31:11.852Z,25
2018-07-08T06:32:11.876Z,25
2018-07-08T06:33:11.900Z,25
2018-07-08T06:34:11.655Z,20
2018-07-08T06:35:11.981Z,20
2018-07-08T06:36:12.432Z,15
2018-07-08T06:37:12.012Z,20
2018-07-08T06:38:12.300Z,25
2018-07-08T06:39:12.522Z,30
2018-07-08T06:40:12.053Z,30
2018-07-08T06:41:12.339Z,30
2018-07-08T06:42:12.368Z,25
2018-07-08T06:43:12.583Z,25
2018-07-08T06:44:12.034Z,20
2018-07-08T06:45:12.164Z,20
2018-07-08T06:46:12.191Z,20
2018-07-08T06:47:12.212Z,15
2018-07-08T06:48:12.237Z,15
2018-07-08T06:49:12.586Z,20
2018-07-08T06:50:12.025Z,25
2018-07-08T06:51:12.608Z,25
2018-07-08T06:52:12.555Z,20
2018-07-08T06:53:12.526Z,20
2018-07-08T06:54:12.543Z,25
2018-07-08T06:55:12.174Z,30
2018-07-08T06:56:12.146Z,30
2018-07-08T06:57:12.173Z,20
2018-07-08T06:58:12.648Z,20
2018-07-08T06:59:11.948Z,15
2018-07-08T07:00:12.408Z,20
2018-07-08T07:01:12.599Z,25
2018-07-08T07:02:12.993Z,25
2018-07-08T07:03:12.568Z,20
2018-07-08T07:04:12.870Z,15
2018-07-08T07:05:12.348Z,15
2018-07-08T07:06:12.646Z,20
2018-07-08T07:07:12.939Z,20
2018-07-08T07:08:12.715Z,30
2018-07-08T07:09:12.443Z,35
2018-07-08T07:10:12.484Z,30
2018-07-08T07:11:12.772Z,30
2018-07-08T07:12:13.046Z,30
2018-07-08T07:13:12.803Z,25
2018-07-08T07:14:12.579Z,20
2018-07-08T07:15:13.129Z,15
2018-07-08T07:16:12.606Z,15
2018-07-08T07:17:12.355Z,15
2018-07-08T07:18:12.912Z,15
2018-07-08T07:19:12.928Z,20
2018-07-08T07:20:13.230Z,20
2018-07-08T07:21:12.988Z,25
2018-07-08T07:22:12.470Z,25
2018-07-08T07:23:13.705Z,25
2018-07-08T07:24:13.050Z,25
2018-07-08T07:25:13.350Z,25
2018-07-08T07:26:13.098Z,30
2018-07-08T07:27:12.855Z,35
2018-07-08T07:28:13.141Z,35
2018-07-08T07:29:13.434Z,40
2018-07-08T07:30:13.480Z,40
2018-07-08T07:31:13.385Z,40
2018-07-08T07:32:12.965Z,40
2018-07-08T07:33:13.256Z,35
2018-07-08T07:34:13.552Z,35
2018-07-08T07:35:13.573Z,35
2018-07-08T07:36:13.323Z,25
2018-07-08T07:37:14.195Z,20
2018-07-08T07:38:13.155Z,25
2018-07-08T07:39:13.677Z,25
2018-07-08T07:40:13.699Z,20
2018-07-08T07:41:13.440Z,20
2018-07-08T07:42:13.731Z,25
2018-07-08T07:43:13.759Z,20
2018-07-08T07:44:13.245Z,20
2018-07-08T07:45:13.562Z,15
2018-07-08T07:46:13.566Z,15
2018-07-08T07:47:13.852Z,15
2018-07-08T07:48:12.799Z,15
2018-07-08T07:49:13.355Z,15
2018-07-08T07:50:13.667Z,15
2018-07-08T07:51:13.757Z,15
2018-07-08T07:52:13.432Z,15
2018-07-08T07:53:13.992Z,15
2018-07-08T07:54:14.009Z,15
2018-07-08T07:55:14.030Z,15
2018-07-08T07:56:13.792Z,15
2018-07-08T07:57:14.088Z,15
2018-07-08T07:58:14.120Z,20
2018-07-08T07:59:13.668Z,20
2018-07-08T08:00:13.940Z,25
2018-07-08T08:01:13.909Z,30
2018-07-08T08:02:13.949Z,25
2018-07-08T08:03:13.694Z,25
2018-07-08T08:04:13.719Z,30
2018-07-08T08:05:13.995Z,35
2018-07-08T08:06:14.019Z,35
2018-07-08T08:07:14.046Z,40
2018-07-08T08:08:14.069Z,40
2018-07-08T08:09:14.090Z,35
2018-07-08T08:10:13.582Z,30
2018-07-08T08:11:14.300Z,35
2018-07-08T08:12:14.160Z,35
2018-07-08T08:13:14.236Z,35
2018-07-08T08:14:14.024Z,30
2018-07-08T08:15:14.241Z,35
2018-07-08T08:16:14.257Z,40
2018-07-08T08:17:14.632Z,40
2018-07-08T08:18:14.040Z,40
2018-07-08T08:19:14.327Z,30
2018-07-08T08:20:14.441Z,35
2018-07-08T08:21:14.390Z,40
2018-07-08T08:22:14.543Z,40
2018-07-08T08:23:14.173Z,40
2018-07-08T08:24:14.238Z,35
2018-07-08T08:25:13.938Z,35
2018-07-08T08:26:14.501Z,45
2018-07-08T08:27:14.522Z,45
2018-07-08T08:28:14.816Z,45
2018-07-08T08:29:14.839Z,45
2018-07-08T08:30:14.332Z,40
2018-07-08T08:31:15.077Z,40
2018-07-08T08:32:14.642Z,50
2018-07-08T08:33:14.930Z,55
2018-07-08T08:34:14.684Z,60
2018-07-08T08:35:15.014Z,50
2018-07-08T08:36:14.734Z,55
2018-07-08T08:37:14.757Z,60
2018-07-08T08:38:15.256Z,55
2018-07-08T08:39:15.074Z,55
2018-07-08T08:40:15.108Z,50
2018-07-08T08:41:14.928Z,50
2018-07-08T08:42:14.878Z,40
2018-07-08T08:43:14.498Z,35
2018-07-08T08:44:15.420Z,30
2018-07-08T08:45:14.683Z,30
2018-07-08T08:46:14.709Z,40
2018-07-08T08:47:15.273Z,50
2018-07-08T08:48:14.788Z,55
2018-07-08T08:49:15.119Z,50
2018-07-08T08:50:15.345Z,50
2018-07-08T08:51:14.749Z,50
2018-07-08T08:52:15.120Z,55
2018-07-08T08:53:15.217Z,60
2018-07-08T08:54:15.180Z,60
2018-07-08T08:55:14.937Z,60
2018-07-08T08:56:15.522Z,60
2018-07-08T08:57:15.249Z,55
2018-07-08T08:58:15.335Z,50
2018-07-08T08:59:14.785Z,55
2018-07-08T09:00:15.596Z,60
2018-07-08T09:01:15.151Z,60
2018-07-08T09:02:15.383Z,60
2018-07-08T09:03:15.127Z,60
2018-07-08T09:04:15.870Z,60
2018-07-08T09:05:15.947Z,60
2018-07-08T09:06:15.201Z,65
2018-07-08T09:07:15.650Z,65
2018-07-08T09:08:15.527Z,60
2018-07-08T09:09:15.806Z,50
2018-07-08T09:10:15.837Z,50
2018-07-08T09:11:15.871Z,45
2018-07-08T09:12:15.362Z,45
2018-07-08T09:13:15.653Z,45
2018-07-08T09:14:15.670Z,55
2018-07-08T09:15:15.511Z,45
2018-07-08T09:16:15.986Z,40
2018-07-08T09:17:16.235Z,35
2018-07-08T09:18:15.775Z,35
2018-07-08T09:19:16.084Z,40
2018-07-08T09:20:15.550Z,50
2018-07-08T09:21:15.573Z,55
2018-07-08T09:22:16.077Z,55
2018-07-08T09:23:16.276Z,60
2018-07-08T09:24:16.485Z,60
2018-07-08T09:25:16.296Z,60
2018-07-08T09:26:16.335Z,60
2018-07-08T09:27:16.353Z,60
2018-07-08T09:28:16.025Z,65
2018-07-08T09:29:16.087Z,50
2018-07-08T09:30:16.256Z,55
2018-07-08T09:31:15.922Z,60
2018-07-08T09:32:15.861Z,60
2018-07-08T09:33:16.580Z,40
2018-07-08T09:34:16.035Z,25
2018-07-08T09:35:16.468Z,25
2018-07-08T09:36:16.259Z,35
2018-07-08T09:37:16.750Z,30
2018-07-08T09:38:16.383Z,35
2018-07-08T09:39:16.925Z,30
2018-07-08T09:40:16.077Z,30
2018-07-08T09:41:16.371Z,30
2018-07-08T09:42:16.384Z,25
2018-07-08T09:43:16.672Z,30
2018-07-08T09:44:16.727Z,50
2018-07-08T09:45:16.460Z,60
2018-07-08T09:46:16.671Z,70
2018-07-08T09:47:16.519Z,75
2018-07-08T09:48:16.533Z,65
2018-07-08T09:49:16.337Z,65
2018-07-08T09:50:16.186Z,75
2018-07-08T09:51:16.899Z,75
2018-07-08T09:52:16.648Z,70
2018-07-08T09:53:16.940Z,60
2018-07-08T09:54:16.703Z,60
2018-07-08T09:55:16.530Z,50
2018-07-08T09:56:17.016Z,45
2018-07-08T09:57:16.781Z,45
2018-07-08T09:58:16.996Z,45
2018-07-08T09:59:17.136Z,60
2018-07-08T10:00:16.578Z,60
2018-07-08T10:01:16.610Z,50
2018-07-08T10:02:17.163Z,45
2018-07-08T10:03:16.937Z,40
2018-07-08T10:04:16.951Z,40
2018-07-08T10:05:16.989Z,55
2018-07-08T10:06:16.834Z,65
2018-07-08T10:07:17.077Z,65
2018-07-08T10:08:17.326Z,55
2018-07-08T10:09:17.086Z,50
2018-07-08T10:10:17.120Z,50
2018-07-08T10:11:17.191Z,50
2018-07-08T10:12:17.176Z,55
2018-07-08T10:13:17.189Z,55
2018-07-08T10:14:17.644Z,65
2018-07-08T10:15:17.517Z,80
2018-07-08T10:16:17.794Z,70
2018-07-08T10:17:17.417Z,55
2018-07-08T10:18:17.399Z,55
2018-07-08T10:19:17.469Z,70
2018-07-08T10:20:18.133Z,75
2018-07-08T10:21:17.412Z,70
2018-07-08T10:22:17.927Z,65
2018-07-08T10:23:17.471Z,65
2018-07-08T10:24:17.486Z,70
2018-07-08T10:25:17.704Z,65
2018-07-08T10:26:17.274Z,70
2018-07-08T10:27:17.689Z,65
2018-07-08T10:28:17.810Z,55
2018-07-08T10:29:18.166Z,50
2018-07-08T10:30:18.120Z,45
2018-07-08T10:31:17.401Z,60
2018-07-08T10:32:17.982Z,75
2018-07-08T10:33:17.724Z,75
2018-07-08T10:34:17.768Z,75
2018-07-08T10:35:17.911Z,75
2018-07-08T10:36:17.552Z,80
2018-07-08T10:37:17.575Z,85
2018-07-08T10:38:18.115Z,80
2018-07-08T10:39:18.162Z,75
2018-07-08T10:40:17.383Z,70
2018-07-08T10:41:17.990Z,80
2018-07-08T10:42:18.242Z,65
2018-07-08T10:43:18.164Z,75
2018-07-08T10:44:18.027Z,85
2018-07-08T10:45:18.076Z,90
2018-07-08T10:46:18.358Z,90
2018-07-08T10:47:18.109Z,85
2018-07-08T10:48:17.869Z,90
2018-07-08T10:49:17.932Z,90
2018-07-08T10:50:18.413Z,85
2018-07-08T10:51:18.224Z,70
2018-07-08T10:52:18.513Z,55
2018-07-08T10:53:18.305Z,60
2018-07-08T10:54:18.310Z,55
2018-07-08T10:55:18.463Z,60
2018-07-08T10:56:18.374Z,65
2018-07-08T10:57:17.897Z,75
2018-07-08T10:58:18.731Z,75
2018-07-08T10:59:18.813Z,70
2018-07-08T11:00:18.737Z,70
2018-07-08T11:01:18.769Z,70
2018-07-08T11:02:18.804Z,65
2018-07-08T11:03:18.829Z,75
2018-07-08T11:04:19.048Z,85
2018-07-08T11:05:18.368Z,85
2018-07-08T11:06:19.104Z,80
2018-07-08T11:07:18.675Z,80
2018-07-08T11:08:18.965Z,80
2018-07-08T11:09:18.724Z,60
2018-07-08T11:10:18.222Z,50
2018-07-08T11:11:18.786Z,70
2018-07-08T11:12:18.813Z,70
2018-07-08T11:13:18.842Z,65
2018-07-08T11:14:18.337Z,65
2018-07-08T11:15:18.933Z,50
2018-07-08T11:16:18.931Z,55
2018-07-08T11:17:18.153Z,55
2018-07-08T11:18:19.252Z,60
2018-07-08T11:19:18.743Z,65
2018-07-08T11:20:19.123Z,70
2018-07-08T11:21:18.818Z,85
2018-07-08T11:22:19.099Z,95
2018-07-08T11:23:18.858Z,100
2018-07-08T11:24:19.153Z,105
2018-07-08T11:25:19.474Z,95
2018-07-08T11:26:19.214Z,85
2018-07-08T11:27:19.237Z,65
2018-07-08T11:28:19.155Z,50
2018-07-08T11:29:19.298Z,55
2018-07-08T11:30:18.801Z,55
2018-07-08T11:31:19.355Z,65
2018-07-08T11:32:19.395Z,85
2018-07-08T11:33:19.676Z,90
2018-07-08T11:34:19.445Z,80
2018-07-08T11:35:19.204Z,50
2018-07-08T11:36:19.504Z,45
2018-07-08T11:37:19.540Z,65
2018-07-08T11:38:19.566Z,65
2018-07-08T11:39:19.995Z,65
2018-07-08T11:40:19.620Z,65
2018-07-08T11:41:19.929Z,65
2018-07-08T11:42:19.677Z,65
2018-07-08T11:43:19.447Z,65
2018-07-08T11:44:19.737Z,70
2018-07-08T11:45:19.501Z,40
2018-07-08T11:46:20.096Z,35
2018-07-08T11:47:20.107Z,70
2018-07-08T11:48:20.129Z,75
2018-07-08T11:49:20.160Z,75
2018-07-08T11:50:20.198Z,70
2018-07-08T11:51:19.678Z,70
2018-07-08T11:52:20.247Z,75
2018-07-08T11:53:20.004Z,50
2018-07-08T11:54:20.302Z,50
2018-07-08T11:55:20.387Z,45
2018-07-08T11:56:20.372Z,80
2018-07-08T11:57:19.861Z,100
2018-07-08T11:58:20.448Z,90
2018-07-08T11:59:19.649Z,90
2018-07-08T12:00:20.217Z,90
2018-07-08T12:01:19.982Z,90
2018-07-08T12:02:19.980Z,110
2018-07-08T12:03:20.600Z,90
2018-07-08T12:04:20.341Z,115
2018-07-08T12:05:20.742Z,95
2018-07-08T12:06:20.910Z,105
2018-07-08T12:07:20.707Z,90
2018-07-08T12:08:20.501Z,80
2018-07-08T12:09:20.785Z,90
2018-07-08T12:10:20.799Z,120
2018-07-08T12:11:20.825Z,85
2018-07-08T12:12:20.589Z,90
2018-07-08T12:13:20.878Z,90
2018-07-08T12:14:20.376Z,85
2018-07-08T12:15:20.473Z,90
2018-07-08T12:16:20.707Z,90
2018-07-08T12:17:21.020Z,90
2018-07-08T12:18:20.805Z,95
2018-07-08T12:19:20.899Z,125
2018-07-08T12:20:21.088Z,115
2018-07-08T12:21:21.586Z,90
2018-07-08T12:22:21.149Z,80
2018-07-08T12:23:20.929Z,80
2018-07-08T12:24:20.948Z,95
2018-07-08T12:25:20.993Z,90
2018-07-08T12:26:21.286Z,70
2018-07-08T12:27:21.057Z,80
2018-07-08T12:28:21.366Z,85
2018-07-08T12:29:21.146Z,85
2018-07-08T12:30:21.170Z,85
2018-07-08T12:31:20.645Z,85
2018-07-08T12:32:21.049Z,90
2018-07-08T12:33:21.500Z,100
2018-07-08T12:34:21.259Z,110
2018-07-08T12:35:21.563Z,130
2018-07-08T12:36:21.116Z,105
2018-07-08T12:37:21.014Z,95
2018-07-08T12:38:20.878Z,80
2018-07-08T12:39:21.845Z,70
2018-07-08T12:40:21.886Z,65
2018-07-08T12:41:21.248Z,65
2018-07-08T12:42:21.252Z,60
2018-07-08T12:43:21.701Z,55
2018-07-08T12:44:22.094Z,55
2018-07-08T12:45:21.825Z,65
2018-07-08T12:46:21.830Z,70
2018-07-08T12:47:21.940Z,90
2018-07-08T12:48:21.974Z,95
2018-07-08T12:49:21.478Z,110
2018-07-08T12:50:21.771Z,95
2018-07-08T12:51:22.062Z,95
2018-07-08T12:52:21.891Z,100
2018-07-08T12:53:22.018Z,95
2018-07-08T12:54:22.106Z,95
2018-07-08T12:55:21.434Z,115
2018-07-08T12:56:21.961Z,85
2018-07-08T12:57:22.438Z,70
2018-07-08T12:58:22.319Z,95
2018-07-08T12:59:22.201Z,100
2018-07-08T13:00:22.554Z,105
2018-07-08T13:01:22.122Z,100
2018-07-08T13:02:22.238Z,80
2018-07-08T13:03:22.471Z,95
2018-07-08T13:04:22.153Z,110
2018-07-08T13:05:22.302Z,80
2018-07-08T13:06:22.825Z,50
2018-07-08T13:07:22.330Z,50
2018-07-08T13:08:22.354Z,95
2018-07-08T13:09:21.885Z,95
2018-07-08T13:10:22.696Z,95
2018-07-08T13:11:22.895Z,100
2018-07-08T13:12:22.480Z,80
2018-07-08T13:13:22.578Z,105
2018-07-08T13:14:22.809Z,135
2018-07-08T13:15:22.844Z,100
2018-07-08T13:16:22.606Z,95
2018-07-08T13:17:22.918Z,120
2018-07-08T13:18:22.938Z,90
2018-07-08T13:19:22.705Z,60
2018-07-08T13:20:22.750Z,65
2018-07-08T13:21:22.563Z,65
2018-07-08T13:22:22.541Z,55
2018-07-08T13:23:23.154Z,55
2018-07-08T13:24:23.132Z,65
2018-07-08T13:25:22.636Z,75
2018-07-08T13:26:23.669Z,110
2018-07-08T13:27:23.235Z,75
2018-07-08T13:28:23.279Z,75
2018-07-08T13:29:22.774Z,65
2018-07-08T13:30:23.341Z,35
2018-07-08T13:31:22.839Z,50
2018-07-08T13:32:24.164Z,80
2018-07-08T13:33:23.185Z,90
2018-07-08T13:34:22.809Z,75
2018-07-08T13:35:22.754Z,40
2018-07-08T13:36:23.535Z,30
2018-07-08T13:37:23.276Z,30
2018-07-08T13:38:23.428Z,35
2018-07-08T13:39:23.784Z,35
2018-07-08T13:40:23.399Z,30
2018-07-08T13:41:23.691Z,25
2018-07-08T13:42:23.747Z,30
2018-07-08T13:43:23.512Z,30
2018-07-08T13:44:23.268Z,20
2018-07-08T13:45:23.844Z,25
2018-07-08T13:46:23.862Z,35
2018-07-08T13:47:23.496Z,40
2018-07-08T13:48:23.924Z,45
2018-07-08T13:49:23.710Z,45
2018-07-08T13:50:23.986Z,50
2018-07-08T13:51:24.031Z,55
2018-07-08T13:52:23.520Z,55
2018-07-08T13:53:23.554Z,55
2018-07-08T13:54:23.396Z,50
2018-07-08T13:55:23.617Z,40
2018-07-08T13:56:24.198Z,40
2018-07-08T13:57:23.693Z,35
2018-07-08T13:58:23.711Z,30
2018-07-08T13:59:24.076Z,35
2018-07-08T14:00:24.320Z,45
2018-07-08T14:01:24.358Z,50
2018-07-08T14:02:23.659Z,55
2018-07-08T14:03:24.415Z,60
2018-07-08T14:04:24.705Z,50
2018-07-08T14:05:23.943Z,45
2018-07-08T14:06:24.289Z,45
2018-07-08T14:07:24.022Z,45
2018-07-08T14:08:24.588Z,40
2018-07-08T14:09:25.070Z,45
2018-07-08T14:10:24.116Z,45
2018-07-08T14:11:24.149Z,65
2018-07-08T14:12:24.445Z,45
2018-07-08T14:13:24.491Z,70
2018-07-08T14:14:24.506Z,70
2018-07-08T14:15:24.285Z,65
2018-07-08T14:16:24.310Z,105
2018-07-08T14:17:24.918Z,105
2018-07-08T14:18:24.665Z,130
2018-07-08T14:19:25.113Z,135
2018-07-08T14:20:25.510Z,135
2018-07-08T14:21:24.818Z,130
2018-07-08T14:22:25.216Z,80
2018-07-08T14:23:24.539Z,105
2018-07-08T14:24:25.014Z,60